sensor_id;sensor_type;location;lat;lon;timestamp;pressure;altitude;pressure_sealevel;temperature;humidity
54924;BME280;40825;52.270;20.984;2022-12-04T00:02:03;101652.41;;;0.17;95.25
54924;BME280;40825;52.270;20.984;2022-12-04T00:04:30;101652.54;;;0.17;95.76
54924;BME280;40825;52.270;20.984;2022-12-04T00:06:55;101648.09;;;0.16;95.91
54924;BME280;40825;52.270;20.984;2022-12-04T00:09:21;101652.61;;;0.16;95.18
54924;BME280;40825;52.270;20.984;2022-12-04T00:11:47;101656.84;;;0.19;95.03
54924;BME280;40825;52.270;20.984;2022-12-04T00:14:12;101652.51;;;0.21;95.25
54924;BME280;40825;52.270;20.984;2022-12-04T00:16:38;101649.30;;;0.22;95.30
54924;BME280;40825;52.270;20.984;2022-12-04T00:19:04;101649.71;;;0.23;95.25
54924;BME280;40825;52.270;20.984;2022-12-04T00:21:29;101656.08;;;0.25;95.07
54924;BME280;40825;52.270;20.984;2022-12-04T00:23:55;101650.91;;;0.27;95.16
54924;BME280;40825;52.270;20.984;2022-12-04T00:26:23;101655.25;;;0.28;95.27
54924;BME280;40825;52.270;20.984;2022-12-04T00:28:50;101659.88;;;0.26;95.55
54924;BME280;40825;52.270;20.984;2022-12-04T00:31:21;101659.63;;;0.25;95.63
54924;BME280;40825;52.270;20.984;2022-12-04T00:33:48;101659.67;;;0.24;95.75
54924;BME280;40825;52.270;20.984;2022-12-04T00:36:16;101651.59;;;0.24;95.49
54924;BME280;40825;52.270;20.984;2022-12-04T00:38:43;101649.96;;;0.25;95.36
54924;BME280;40825;52.270;20.984;2022-12-04T00:41:10;101653.59;;;0.29;95.38
54924;BME280;40825;52.270;20.984;2022-12-04T00:43:36;101655.02;;;0.29;95.60
54924;BME280;40825;52.270;20.984;2022-12-04T00:46:01;101654.89;;;0.25;96.00
54924;BME280;40825;52.270;20.984;2022-12-04T00:48:27;101655.34;;;0.23;96.25
54924;BME280;40825;52.270;20.984;2022-12-04T00:50:52;101657.17;;;0.22;96.01
54924;BME280;40825;52.270;20.984;2022-12-04T00:53:18;101654.37;;;0.22;95.65
54924;BME280;40825;52.270;20.984;2022-12-04T00:55:44;101655.62;;;0.22;96.23
54924;BME280;40825;52.270;20.984;2022-12-04T00:58:10;101651.34;;;0.20;96.24
54924;BME280;40825;52.270;20.984;2022-12-04T01:00:37;101648.90;;;0.20;96.19
54924;BME280;40825;52.270;20.984;2022-12-04T01:03:04;101651.45;;;0.18;96.41
54924;BME280;40825;52.270;20.984;2022-12-04T01:05:30;101645.73;;;0.17;96.25
54924;BME280;40825;52.270;20.984;2022-12-04T01:07:56;101652.16;;;0.18;96.08
54924;BME280;40825;52.270;20.984;2022-12-04T01:10:21;101659.09;;;0.19;96.34
54924;BME280;40825;52.270;20.984;2022-12-04T01:12:50;101660.58;;;0.20;96.14
54924;BME280;40825;52.270;20.984;2022-12-04T01:15:17;101652.61;;;0.22;96.07
54924;BME280;40825;52.270;20.984;2022-12-04T01:17:43;101647.89;;;0.25;95.81
54924;BME280;40825;52.270;20.984;2022-12-04T01:20:13;101647.21;;;0.27;96.09
54924;BME280;40825;52.270;20.984;2022-12-04T01:22:38;101656.99;;;0.28;96.11
54924;BME280;40825;52.270;20.984;2022-12-04T01:25:04;101653.51;;;0.27;96.13
54924;BME280;40825;52.270;20.984;2022-12-04T01:27:30;101644.10;;;0.26;96.37
54924;BME280;40825;52.270;20.984;2022-12-04T01:29:55;101651.48;;;0.26;96.24
54924;BME280;40825;52.270;20.984;2022-12-04T01:32:21;101657.42;;;0.26;96.17
54924;BME280;40825;52.270;20.984;2022-12-04T01:34:46;101655.14;;;0.26;96.40
54924;BME280;40825;52.270;20.984;2022-12-04T01:37:11;101651.31;;;0.26;96.09
54924;BME280;40825;52.270;20.984;2022-12-04T01:39:37;101655.12;;;0.27;96.29
54924;BME280;40825;52.270;20.984;2022-12-04T01:42:03;101655.36;;;0.25;96.11
54924;BME280;40825;52.270;20.984;2022-12-04T01:44:30;101658.63;;;0.27;96.25
54924;BME280;40825;52.270;20.984;2022-12-04T01:46:58;101653.45;;;0.25;96.24
54924;BME280;40825;52.270;20.984;2022-12-04T01:49:30;101651.50;;;0.26;96.15
54924;BME280;40825;52.270;20.984;2022-12-04T01:52:03;101655.17;;;0.26;96.24
54924;BME280;40825;52.270;20.984;2022-12-04T01:54:33;101651.61;;;0.24;96.66
54924;BME280;40825;52.270;20.984;2022-12-04T01:57:03;101653.27;;;0.23;96.55
54924;BME280;40825;52.270;20.984;2022-12-04T01:59:39;101654.37;;;0.22;96.64
54924;BME280;40825;52.270;20.984;2022-12-04T02:02:51;101650.83;;;0.25;96.58
54924;BME280;40825;52.270;20.984;2022-12-04T02:05:20;101649.73;;;0.23;96.45
54924;BME280;40825;52.270;20.984;2022-12-04T02:07:48;101649.95;;;0.23;96.74
54924;BME280;40825;52.270;20.984;2022-12-04T02:10:15;101650.23;;;0.21;96.98
54924;BME280;40825;52.270;20.984;2022-12-04T02:29:03;101625.47;;;0.19;96.91
54924;BME280;40825;52.270;20.984;2022-12-04T02:32:53;101632.82;;;0.19;96.67
54924;BME280;40825;52.270;20.984;2022-12-04T02:35:01;101633.53;;;0.19;96.57
54924;BME280;40825;52.270;20.984;2022-12-04T02:37:34;101631.18;;;0.20;96.60
54924;BME280;40825;52.270;20.984;2022-12-04T02:40:13;101635.44;;;0.22;96.55
54924;BME280;40825;52.270;20.984;2022-12-04T02:42:47;101634.98;;;0.24;96.33
54924;BME280;40825;52.270;20.984;2022-12-04T02:45:19;101634.95;;;0.25;96.44
54924;BME280;40825;52.270;20.984;2022-12-04T02:47:46;101634.80;;;0.24;96.57
54924;BME280;40825;52.270;20.984;2022-12-04T02:50:15;101634.55;;;0.22;96.55
54924;BME280;40825;52.270;20.984;2022-12-04T02:52:54;101631.11;;;0.21;96.58
54924;BME280;40825;52.270;20.984;2022-12-04T02:55:26;101630.59;;;0.21;96.49
54924;BME280;40825;52.270;20.984;2022-12-04T02:57:58;101630.34;;;0.19;96.87
54924;BME280;40825;52.270;20.984;2022-12-04T03:00:25;101636.08;;;0.18;96.98
54924;BME280;40825;52.270;20.984;2022-12-04T03:03:01;101634.59;;;0.16;96.78
54924;BME280;40825;52.270;20.984;2022-12-04T03:05:38;101634.67;;;0.17;96.75
54924;BME280;40825;52.270;20.984;2022-12-04T03:08:13;101638.70;;;0.17;96.88
54924;BME280;40825;52.270;20.984;2022-12-04T03:10:48;101632.77;;;0.17;96.80
54924;BME280;40825;52.270;20.984;2022-12-04T03:13:19;101629.70;;;0.19;96.70
54924;BME280;40825;52.270;20.984;2022-12-04T03:15:50;101626.12;;;0.20;96.60
54924;BME280;40825;52.270;20.984;2022-12-04T03:18:21;101622.48;;;0.22;96.64
54924;BME280;40825;52.270;20.984;2022-12-04T03:20:56;101622.09;;;0.23;96.61
54924;BME280;40825;52.270;20.984;2022-12-04T03:23:58;101617.73;;;0.23;96.69
54924;BME280;40825;52.270;20.984;2022-12-04T03:26:41;101622.00;;;0.22;96.70
54924;BME280;40825;52.270;20.984;2022-12-04T03:29:32;101619.11;;;0.20;96.79
54924;BME280;40825;52.270;20.984;2022-12-04T03:32:12;101617.23;;;0.19;96.73
54924;BME280;40825;52.270;20.984;2022-12-04T03:37:20;101615.67;;;0.19;96.68
54924;BME280;40825;52.270;20.984;2022-12-04T03:39:56;101617.95;;;0.19;96.75
54924;BME280;40825;52.270;20.984;2022-12-04T03:42:48;101621.92;;;0.20;96.86
54924;BME280;40825;52.270;20.984;2022-12-04T03:45:25;101624.50;;;0.21;96.66
54924;BME280;40825;52.270;20.984;2022-12-04T03:50:37;101610.45;;;0.21;96.69
54924;BME280;40825;52.270;20.984;2022-12-04T03:56:30;101611.44;;;0.23;96.56
54924;BME280;40825;52.270;20.984;2022-12-04T03:59:02;101616.52;;;0.23;96.80
54924;BME280;40825;52.270;20.984;2022-12-04T04:01:35;101608.73;;;0.21;96.66
54924;BME280;40825;52.270;20.984;2022-12-04T04:04:03;101605.77;;;0.20;96.57
54924;BME280;40825;52.270;20.984;2022-12-04T04:06:43;101608.09;;;0.23;96.53
54924;BME280;40825;52.270;20.984;2022-12-04T04:09:17;101608.42;;;0.23;96.58
54924;BME280;40825;52.270;20.984;2022-12-04T04:14:44;101604.51;;;0.19;96.67
54924;BME280;40825;52.270;20.984;2022-12-04T04:17:33;101605.13;;;0.17;96.66
54924;BME280;40825;52.270;20.984;2022-12-04T04:20:22;101602.05;;;0.19;96.58
54924;BME280;40825;52.270;20.984;2022-12-04T04:23:10;101607.79;;;0.25;96.52
54924;BME280;40825;52.270;20.984;2022-12-04T04:25:59;101604.50;;;0.27;96.35
54924;BME280;40825;52.270;20.984;2022-12-04T04:28:28;101603.27;;;0.31;96.29
54924;BME280;40825;52.270;20.984;2022-12-04T04:30:56;101601.47;;;0.34;96.23
54924;BME280;40825;52.270;20.984;2022-12-04T04:33:24;101595.70;;;0.34;96.31
54924;BME280;40825;52.270;20.984;2022-12-04T04:36:07;101592.90;;;0.34;96.31
54924;BME280;40825;52.270;20.984;2022-12-04T04:38:52;101591.61;;;0.38;96.30
54924;BME280;40825;52.270;20.984;2022-12-04T04:41:28;101589.04;;;0.43;96.22
54924;BME280;40825;52.270;20.984;2022-12-04T04:44:15;101590.23;;;0.46;96.24
54924;BME280;40825;52.270;20.984;2022-12-04T04:46:49;101596.73;;;0.48;96.18
54924;BME280;40825;52.270;20.984;2022-12-04T04:49:18;101599.46;;;0.44;96.16
54924;BME280;40825;52.270;20.984;2022-12-04T04:51:47;101602.16;;;0.43;96.23
54924;BME280;40825;52.270;20.984;2022-12-04T04:54:15;101606.70;;;0.43;96.27
54924;BME280;40825;52.270;20.984;2022-12-04T04:56:45;101601.02;;;0.42;96.27
54924;BME280;40825;52.270;20.984;2022-12-04T04:59:12;101609.06;;;0.42;96.21
54924;BME280;40825;52.270;20.984;2022-12-04T05:01:39;101609.67;;;0.37;96.23
54924;BME280;40825;52.270;20.984;2022-12-04T05:04:06;101612.73;;;0.36;96.27
54924;BME280;40825;52.270;20.984;2022-12-04T05:06:32;101612.92;;;0.36;96.13
54924;BME280;40825;52.270;20.984;2022-12-04T05:08:57;101615.42;;;0.35;96.05
54924;BME280;40825;52.270;20.984;2022-12-04T05:11:23;101616.83;;;0.32;96.06
54924;BME280;40825;52.270;20.984;2022-12-04T05:13:49;101616.61;;;0.33;96.07
54924;BME280;40825;52.270;20.984;2022-12-04T05:16:14;101613.98;;;0.33;96.09
54924;BME280;40825;52.270;20.984;2022-12-04T05:18:41;101621.52;;;0.33;96.03
54924;BME280;40825;52.270;20.984;2022-12-04T05:21:32;101618.35;;;0.30;96.00
54924;BME280;40825;52.270;20.984;2022-12-04T05:23:58;101609.52;;;0.28;95.99
54924;BME280;40825;52.270;20.984;2022-12-04T05:26:23;101614.79;;;0.28;96.10
54924;BME280;40825;52.270;20.984;2022-12-04T05:28:49;101620.50;;;0.29;95.99
54924;BME280;40825;52.270;20.984;2022-12-04T05:31:14;101618.20;;;0.30;95.93
54924;BME280;40825;52.270;20.984;2022-12-04T05:33:40;101620.85;;;0.29;95.94
54924;BME280;40825;52.270;20.984;2022-12-04T05:36:07;101626.10;;;0.29;95.84
54924;BME280;40825;52.270;20.984;2022-12-04T05:38:34;101633.60;;;0.27;95.78
54924;BME280;40825;52.270;20.984;2022-12-04T05:41:01;101636.05;;;0.24;95.77
54924;BME280;40825;52.270;20.984;2022-12-04T05:43:27;101640.27;;;0.24;95.79
54924;BME280;40825;52.270;20.984;2022-12-04T05:45:52;101639.65;;;0.22;95.67
54924;BME280;40825;52.270;20.984;2022-12-04T05:48:18;101636.23;;;0.21;95.62
54924;BME280;40825;52.270;20.984;2022-12-04T05:50:43;101637.27;;;0.21;95.74
54924;BME280;40825;52.270;20.984;2022-12-04T05:53:09;101632.29;;;0.22;95.69
54924;BME280;40825;52.270;20.984;2022-12-04T05:55:35;101626.29;;;0.23;95.67
54924;BME280;40825;52.270;20.984;2022-12-04T05:58:00;101627.42;;;0.24;95.50
54924;BME280;40825;52.270;20.984;2022-12-04T06:00:27;101631.52;;;0.23;95.37
54924;BME280;40825;52.270;20.984;2022-12-04T06:02:52;101626.71;;;0.22;95.53
54924;BME280;40825;52.270;20.984;2022-12-04T06:05:18;101630.40;;;0.22;95.43
54924;BME280;40825;52.270;20.984;2022-12-04T06:07:43;101634.70;;;0.20;95.41
54924;BME280;40825;52.270;20.984;2022-12-04T06:10:09;101642.88;;;0.21;95.41
54924;BME280;40825;52.270;20.984;2022-12-04T06:12:35;101645.17;;;0.20;95.43
54924;BME280;40825;52.270;20.984;2022-12-04T06:15:00;101646.84;;;0.19;95.39
54924;BME280;40825;52.270;20.984;2022-12-04T06:17:26;101647.45;;;0.21;95.49
54924;BME280;40825;52.270;20.984;2022-12-04T06:19:51;101645.85;;;0.21;95.41
54924;BME280;40825;52.270;20.984;2022-12-04T06:22:18;101636.83;;;0.20;95.38
54924;BME280;40825;52.270;20.984;2022-12-04T06:24:44;101638.05;;;0.19;95.38
54924;BME280;40825;52.270;20.984;2022-12-04T06:27:09;101644.34;;;0.17;95.43
54924;BME280;40825;52.270;20.984;2022-12-04T06:29:35;101651.17;;;0.17;95.47
54924;BME280;40825;52.270;20.984;2022-12-04T06:32:00;101656.52;;;0.18;95.49
54924;BME280;40825;52.270;20.984;2022-12-04T06:34:26;101651.50;;;0.18;95.47
54924;BME280;40825;52.270;20.984;2022-12-04T06:36:51;101653.31;;;0.16;95.52
54924;BME280;40825;52.270;20.984;2022-12-04T06:39:17;101652.22;;;0.14;95.64
54924;BME280;40825;52.270;20.984;2022-12-04T06:41:42;101662.27;;;0.12;95.58
54924;BME280;40825;52.270;20.984;2022-12-04T06:44:08;101663.60;;;0.14;95.48
54924;BME280;40825;52.270;20.984;2022-12-04T06:46:34;101669.83;;;0.15;95.57
54924;BME280;40825;52.270;20.984;2022-12-04T06:49:00;101665.85;;;0.14;95.69
54924;BME280;40825;52.270;20.984;2022-12-04T06:51:30;101668.84;;;0.14;95.60
54924;BME280;40825;52.270;20.984;2022-12-04T06:53:56;101660.02;;;0.15;95.53
54924;BME280;40825;52.270;20.984;2022-12-04T06:56:24;101663.63;;;0.16;95.28
54924;BME280;40825;52.270;20.984;2022-12-04T06:58:52;101661.20;;;0.13;95.57
54924;BME280;40825;52.270;20.984;2022-12-04T07:01:21;101659.77;;;0.13;95.50
54924;BME280;40825;52.270;20.984;2022-12-04T07:03:47;101656.80;;;0.13;95.51
54924;BME280;40825;52.270;20.984;2022-12-04T07:06:23;101659.52;;;0.12;95.51
54924;BME280;40825;52.270;20.984;2022-12-04T07:08:58;101659.15;;;0.12;95.41
54924;BME280;40825;52.270;20.984;2022-12-04T07:11:23;101660.83;;;0.13;95.29
54924;BME280;40825;52.270;20.984;2022-12-04T07:13:50;101658.27;;;0.15;95.33
54924;BME280;40825;52.270;20.984;2022-12-04T07:16:17;101659.97;;;0.16;95.16
54924;BME280;40825;52.270;20.984;2022-12-04T07:18:44;101664.64;;;0.17;95.17
54924;BME280;40825;52.270;20.984;2022-12-04T07:21:14;101666.59;;;0.19;95.16
54924;BME280;40825;52.270;20.984;2022-12-04T07:23:40;101666.60;;;0.19;95.02
54924;BME280;40825;52.270;20.984;2022-12-04T07:26:07;101664.09;;;0.17;95.05
54924;BME280;40825;52.270;20.984;2022-12-04T07:28:34;101666.70;;;0.20;95.02
54924;BME280;40825;52.270;20.984;2022-12-04T07:31:05;101664.42;;;0.23;95.01
54924;BME280;40825;52.270;20.984;2022-12-04T07:33:31;101660.52;;;0.27;94.91
54924;BME280;40825;52.270;20.984;2022-12-04T07:35:58;101659.55;;;0.29;94.85
54924;BME280;40825;52.270;20.984;2022-12-04T07:38:24;101665.53;;;0.32;94.77
54924;BME280;40825;52.270;20.984;2022-12-04T07:40:50;101673.25;;;0.32;94.36
54924;BME280;40825;52.270;20.984;2022-12-04T07:43:15;101679.27;;;0.27;94.39
54924;BME280;40825;52.270;20.984;2022-12-04T07:45:40;101679.10;;;0.27;94.54
54924;BME280;40825;52.270;20.984;2022-12-04T07:48:06;101677.76;;;0.29;94.55
54924;BME280;40825;52.270;20.984;2022-12-04T07:50:31;101675.12;;;0.30;94.39
54924;BME280;40825;52.270;20.984;2022-12-04T07:52:56;101679.60;;;0.31;94.32
54924;BME280;40825;52.270;20.984;2022-12-04T07:55:22;101682.52;;;0.32;94.29
54924;BME280;40825;52.270;20.984;2022-12-04T07:57:47;101684.10;;;0.32;94.15
54924;BME280;40825;52.270;20.984;2022-12-04T08:00:13;101684.39;;;0.33;94.31
54924;BME280;40825;52.270;20.984;2022-12-04T08:02:39;101690.95;;;0.34;94.17
54924;BME280;40825;52.270;20.984;2022-12-04T08:05:04;101690.13;;;0.33;94.09
54924;BME280;40825;52.270;20.984;2022-12-04T08:07:31;101690.83;;;0.33;94.13
54924;BME280;40825;52.270;20.984;2022-12-04T08:09:56;101693.73;;;0.35;94.12
54924;BME280;40825;52.270;20.984;2022-12-04T08:12:22;101698.34;;;0.34;93.79
54924;BME280;40825;52.270;20.984;2022-12-04T08:14:48;101698.67;;;0.34;93.75
54924;BME280;40825;52.270;20.984;2022-12-04T08:17:13;101687.42;;;0.32;93.66
54924;BME280;40825;52.270;20.984;2022-12-04T08:19:39;101690.52;;;0.33;93.93
54924;BME280;40825;52.270;20.984;2022-12-04T08:22:04;101685.98;;;0.32;93.61
54924;BME280;40825;52.270;20.984;2022-12-04T08:24:30;101684.59;;;0.29;93.47
54924;BME280;40825;52.270;20.984;2022-12-04T08:26:55;101687.66;;;0.27;93.63
54924;BME280;40825;52.270;20.984;2022-12-04T08:29:21;101689.02;;;0.28;93.75
54924;BME280;40825;52.270;20.984;2022-12-04T08:31:47;101687.58;;;0.29;93.73
54924;BME280;40825;52.270;20.984;2022-12-04T08:34:13;101690.36;;;0.29;93.72
54924;BME280;40825;52.270;20.984;2022-12-04T08:36:39;101690.16;;;0.30;93.67
54924;BME280;40825;52.270;20.984;2022-12-04T08:39:05;101688.92;;;0.33;93.82
54924;BME280;40825;52.270;20.984;2022-12-04T08:41:30;101688.39;;;0.36;93.79
54924;BME280;40825;52.270;20.984;2022-12-04T08:43:56;101684.64;;;0.37;93.60
54924;BME280;40825;52.270;20.984;2022-12-04T08:46:24;101678.65;;;0.41;93.75
54924;BME280;40825;52.270;20.984;2022-12-04T08:48:50;101682.14;;;0.44;93.64
54924;BME280;40825;52.270;20.984;2022-12-04T08:51:19;101676.77;;;0.46;93.45
54924;BME280;40825;52.270;20.984;2022-12-04T08:53:45;101681.73;;;0.48;93.38
54924;BME280;40825;52.270;20.984;2022-12-04T08:56:12;101681.14;;;0.49;93.24
54924;BME280;40825;52.270;20.984;2022-12-04T08:58:38;101676.09;;;0.48;93.10
54924;BME280;40825;52.270;20.984;2022-12-04T09:01:08;101673.64;;;0.48;93.16
54924;BME280;40825;52.270;20.984;2022-12-04T09:03:35;101681.23;;;0.48;92.99
54924;BME280;40825;52.270;20.984;2022-12-04T09:06:01;101682.89;;;0.46;93.16
54924;BME280;40825;52.270;20.984;2022-12-04T09:08:27;101682.92;;;0.48;93.40
54924;BME280;40825;52.270;20.984;2022-12-04T09:10:52;101682.67;;;0.50;93.24
54924;BME280;40825;52.270;20.984;2022-12-04T09:13:18;101682.80;;;0.50;93.06
54924;BME280;40825;52.270;20.984;2022-12-04T09:15:43;101679.10;;;0.51;92.97
54924;BME280;40825;52.270;20.984;2022-12-04T09:18:09;101677.02;;;0.50;93.04
54924;BME280;40825;52.270;20.984;2022-12-04T09:20:35;101671.66;;;0.52;92.98
54924;BME280;40825;52.270;20.984;2022-12-04T09:23:01;101669.76;;;0.54;93.03
54924;BME280;40825;52.270;20.984;2022-12-04T09:25:27;101670.54;;;0.56;93.01
54924;BME280;40825;52.270;20.984;2022-12-04T09:27:52;101672.77;;;0.57;92.99
54924;BME280;40825;52.270;20.984;2022-12-04T09:30:17;101673.11;;;0.60;93.25
54924;BME280;40825;52.270;20.984;2022-12-04T09:32:43;101669.38;;;0.64;92.98
54924;BME280;40825;52.270;20.984;2022-12-04T09:35:08;101671.02;;;0.66;92.94
54924;BME280;40825;52.270;20.984;2022-12-04T09:37:34;101671.82;;;0.67;92.64
54924;BME280;40825;52.270;20.984;2022-12-04T09:40:04;101665.25;;;0.65;92.71
54924;BME280;40825;52.270;20.984;2022-12-04T09:42:38;101664.59;;;0.68;92.85
54924;BME280;40825;52.270;20.984;2022-12-04T09:45:15;101664.91;;;0.71;92.76
54924;BME280;40825;52.270;20.984;2022-12-04T09:47:50;101662.59;;;0.72;92.53
54924;BME280;40825;52.270;20.984;2022-12-04T09:50:25;101663.55;;;0.73;92.53
54924;BME280;40825;52.270;20.984;2022-12-04T09:53:00;101664.67;;;0.75;92.43
54924;BME280;40825;52.270;20.984;2022-12-04T09:58:11;101661.98;;;0.81;92.47
54924;BME280;40825;52.270;20.984;2022-12-04T10:00:41;101657.62;;;0.81;92.27
54924;BME280;40825;52.270;20.984;2022-12-04T10:03:17;101647.58;;;0.82;92.25
54924;BME280;40825;52.270;20.984;2022-12-04T10:06:08;101639.69;;;0.85;92.28
54924;BME280;40825;52.270;20.984;2022-12-04T10:08:41;101643.02;;;0.88;92.36
54924;BME280;40825;52.270;20.984;2022-12-04T10:11:17;101644.13;;;0.87;91.72
54924;BME280;40825;52.270;20.984;2022-12-04T10:19:49;101640.17;;;0.97;91.71
54924;BME280;40825;52.270;20.984;2022-12-04T10:22:24;101640.23;;;1.02;91.69
54924;BME280;40825;52.270;20.984;2022-12-04T10:27:27;101635.81;;;1.08;91.42
54924;BME280;40825;52.270;20.984;2022-12-04T10:29:59;101633.48;;;1.06;91.10
54924;BME280;40825;52.270;20.984;2022-12-04T10:32:36;101637.09;;;1.07;91.19
54924;BME280;40825;52.270;20.984;2022-12-04T10:35:23;101633.52;;;1.08;90.97
54924;BME280;40825;52.270;20.984;2022-12-04T10:37:56;101633.84;;;1.08;91.12
54924;BME280;40825;52.270;20.984;2022-12-04T10:40:44;101624.66;;;1.10;90.99
54924;BME280;40825;52.270;20.984;2022-12-04T10:43:36;101620.88;;;1.12;91.08
54924;BME280;40825;52.270;20.984;2022-12-04T10:46:04;101615.31;;;1.16;91.31
54924;BME280;40825;52.270;20.984;2022-12-04T10:48:34;101616.94;;;1.21;91.07
54924;BME280;40825;52.270;20.984;2022-12-04T10:51:02;101618.45;;;1.21;90.57
54924;BME280;40825;52.270;20.984;2022-12-04T10:53:34;101610.27;;;1.24;90.69
54924;BME280;40825;52.270;20.984;2022-12-04T10:56:14;101603.60;;;1.21;90.54
54924;BME280;40825;52.270;20.984;2022-12-04T10:58:53;101598.08;;;1.25;90.85
54924;BME280;40825;52.270;20.984;2022-12-04T11:01:20;101597.05;;;1.24;90.41
54924;BME280;40825;52.270;20.984;2022-12-04T11:03:55;101604.55;;;1.28;90.69
54924;BME280;40825;52.270;20.984;2022-12-04T11:06:24;101595.71;;;1.29;90.68
54924;BME280;40825;52.270;20.984;2022-12-04T11:08:50;101591.60;;;1.30;90.64
54924;BME280;40825;52.270;20.984;2022-12-04T11:11:24;101585.32;;;1.32;90.68
54924;BME280;40825;52.270;20.984;2022-12-04T11:14:12;101589.14;;;1.30;89.95
54924;BME280;40825;52.270;20.984;2022-12-04T11:16:43;101587.16;;;1.26;90.05
54924;BME280;40825;52.270;20.984;2022-12-04T11:21:46;101586.73;;;1.27;90.31
54924;BME280;40825;52.270;20.984;2022-12-04T11:24:20;101585.55;;;1.26;90.35
54924;BME280;40825;52.270;20.984;2022-12-04T11:26:47;101588.23;;;1.28;90.49
54924;BME280;40825;52.270;20.984;2022-12-04T11:29:15;101584.77;;;1.27;90.14
54924;BME280;40825;52.270;20.984;2022-12-04T11:31:48;101584.33;;;1.26;90.34
54924;BME280;40825;52.270;20.984;2022-12-04T11:34:19;101583.67;;;1.28;90.22
54924;BME280;40825;52.270;20.984;2022-12-04T11:36:50;101586.02;;;1.27;89.96
54924;BME280;40825;52.270;20.984;2022-12-04T11:39:24;101581.17;;;1.26;90.19
54924;BME280;40825;52.270;20.984;2022-12-04T11:42:00;101583.48;;;1.26;90.02
54924;BME280;40825;52.270;20.984;2022-12-04T11:44:28;101583.06;;;1.24;89.91
54924;BME280;40825;52.270;20.984;2022-12-04T11:46:56;101581.31;;;1.21;90.18
54924;BME280;40825;52.270;20.984;2022-12-04T11:49:24;101575.52;;;1.21;90.40
54924;BME280;40825;52.270;20.984;2022-12-04T11:54:29;101577.90;;;1.20;90.25
54924;BME280;40825;52.270;20.984;2022-12-04T12:00:20;101578.90;;;1.26;90.41
54924;BME280;40825;52.270;20.984;2022-12-04T12:03:00;101580.45;;;1.27;90.28
54924;BME280;40825;52.270;20.984;2022-12-04T12:06:06;101580.05;;;1.24;90.20
54924;BME280;40825;52.270;20.984;2022-12-04T12:08:49;101583.02;;;1.19;90.23
54924;BME280;40825;52.270;20.984;2022-12-04T12:14:10;101582.36;;;1.13;90.29
54924;BME280;40825;52.270;20.984;2022-12-04T12:19:47;101580.02;;;1.14;90.53
54924;BME280;40825;52.270;20.984;2022-12-04T12:22:45;101575.92;;;1.18;90.50
54924;BME280;40825;52.270;20.984;2022-12-04T12:31:29;101561.05;;;1.20;90.50
54924;BME280;40825;52.270;20.984;2022-12-04T12:33:33;101557.02;;;1.22;90.53
54924;BME280;40825;52.270;20.984;2022-12-04T12:36:07;101555.14;;;1.22;90.36
54924;BME280;40825;52.270;20.984;2022-12-04T12:38:40;101554.36;;;1.20;90.45
54924;BME280;40825;52.270;20.984;2022-12-04T12:43:43;101550.77;;;1.24;90.48
54924;BME280;40825;52.270;20.984;2022-12-04T12:46:15;101548.28;;;1.25;90.44
54924;BME280;40825;52.270;20.984;2022-12-04T12:48:52;101552.14;;;1.28;90.57
54924;BME280;40825;52.270;20.984;2022-12-04T12:51:36;101554.19;;;1.31;90.54
54924;BME280;40825;52.270;20.984;2022-12-04T12:57:11;101567.09;;;1.30;90.35
54924;BME280;40825;52.270;20.984;2022-12-04T12:59:45;101566.61;;;1.26;90.39
54924;BME280;40825;52.270;20.984;2022-12-04T13:04:50;101566.06;;;1.24;90.57
54924;BME280;40825;52.270;20.984;2022-12-04T13:10:39;101566.42;;;1.18;90.51
54924;BME280;40825;52.270;20.984;2022-12-04T13:13:05;101568.11;;;1.17;90.63
54924;BME280;40825;52.270;20.984;2022-12-04T13:15:38;101566.80;;;1.15;90.78
54924;BME280;40825;52.270;20.984;2022-12-04T13:18:06;101566.14;;;1.15;90.78
54924;BME280;40825;52.270;20.984;2022-12-04T13:20:40;101565.10;;;1.14;90.93
54924;BME280;40825;52.270;20.984;2022-12-04T13:26:09;101563.13;;;1.13;91.01
54924;BME280;40825;52.270;20.984;2022-12-04T13:28:54;101561.48;;;1.11;91.04
54924;BME280;40825;52.270;20.984;2022-12-04T13:42:33;101567.63;;;1.13;90.95
54924;BME280;40825;52.270;20.984;2022-12-04T13:45:10;101568.27;;;1.12;90.96
54924;BME280;40825;52.270;20.984;2022-12-04T13:47:36;101572.16;;;1.11;90.96
54924;BME280;40825;52.270;20.984;2022-12-04T13:50:31;101573.27;;;1.10;90.89
54924;BME280;40825;52.270;20.984;2022-12-04T13:52:57;101576.77;;;1.07;90.89
54924;BME280;40825;52.270;20.984;2022-12-04T13:55:33;101577.63;;;1.07;90.94
54924;BME280;40825;52.270;20.984;2022-12-04T13:58:26;101579.10;;;1.09;90.92
54924;BME280;40825;52.270;20.984;2022-12-04T14:01:19;101582.40;;;1.09;90.98
54924;BME280;40825;52.270;20.984;2022-12-04T14:03:51;101582.46;;;1.08;91.01
54924;BME280;40825;52.270;20.984;2022-12-04T14:06:40;101587.42;;;1.07;90.96
54924;BME280;40825;52.270;20.984;2022-12-04T14:09:26;101588.09;;;1.03;90.95
54924;BME280;40825;52.270;20.984;2022-12-04T14:11:58;101587.74;;;1.03;90.96
54924;BME280;40825;52.270;20.984;2022-12-04T14:14:27;101585.90;;;1.04;90.97
54924;BME280;40825;52.270;20.984;2022-12-04T14:16:56;101587.96;;;1.05;91.03
54924;BME280;40825;52.270;20.984;2022-12-04T14:19:35;101587.92;;;1.05;90.89
54924;BME280;40825;52.270;20.984;2022-12-04T14:22:02;101591.63;;;1.05;90.78
54924;BME280;40825;52.270;20.984;2022-12-04T14:24:38;101595.27;;;1.03;90.78
54924;BME280;40825;52.270;20.984;2022-12-04T14:30:00;101604.86;;;0.98;90.87
54924;BME280;40825;52.270;20.984;2022-12-04T14:32:32;101601.64;;;0.96;90.86
54924;BME280;40825;52.270;20.984;2022-12-04T14:34:59;101596.47;;;0.95;90.86
54924;BME280;40825;52.270;20.984;2022-12-04T14:37:29;101601.13;;;0.93;90.85